Portada
METAR-TAF:

METAR-TAF

Aeroports :

Boryspil, Ucraïna

latitud: 50-20N, longitud: 030-58E, altitud: 121 m

Observació

L'informe es va fer fa 27 minuts, a les 22:00 UTC
Vent 8 kt del Sud/Sud-Oest
Temperatura -1°C
Humitat 93%
Pressió 1028 hPa
Visibilitat: 6000 m
Cel cobert a una alçada de 400 ft

METAR: UKBB 182200Z 21004MPS 6000 OVC004 M01/M02 Q1028 R18L/290050 R18R/CLRD// NOSIG

Hora: 00:27 (22:27 UTC)

Pronòstic

L'informe es va fer fa 5 hores i 24 minuts, a les 17:03 UTC
Pronòstic vàlid del 18 a les 18 UTC al 19 a les 18 UTC
Vent 8 kt del Sud/Sud-Oest
Visibilitat: 3000 m
Cel cobert a una alçada de 300 ft
boirina
Temporalment
l' 18 a les 18 UTC al 19 a les 06 UTC
Visibilitat: 0400 m
a una alçada de 100 ft
boira gebradora
Probabilitat 40% :
Temporalment
l' 18 a les 18 UTC al 19 a les 06 UTC
Cel cobert a una alçada de 100 ft
(lleu) gebradora, plugim

TAF: UKBB 181703Z 1818/1918 20004MPS 3000 BR OVC003 TXM00/1912Z TNM03/1904Z TEMPO 1818/1906 0400 FZFG VV001 PROB40 TEMPO 1818/1906 -FZDZ OVC001

Observacions i pronòstics meteorològics de més de 4000 aeroports (METAR i TAF).

Les estacions disponibles són els punts grocs i vermells al mapa.

Posi el ratolí al punt desitjat per veure el nom de l'estació.

Feu clic per veure les observacions i els pronòstics meteorològics.

Per canviar el mapa: feu clic els botons verds amb una creu de color negre per apropar; al botó verd amb un guió per allunyar la imatge; o en les fletxes verdes per a mapes adjacents.


METAR-TAF: